aviador You're here:

KDTO Decoded Metar

DENTON in TX, USA
Report Time2017-09-20 19:53:00
UTC Time2017-09-20 20:06:38
Flight Rules vfr VFR
Wind170° at 17 Gusting to 21 kt
W.Decomp.*RWY 18: 16.5 kt HW 4.1 kt LCW
W.Rank170° ranks 2
Current wind is above 170° avg. (10.8)
Visibility9999 m
Phenomena:N/A
Clouds:N/A
Expected CloudBase > 4,800 ft AGL from Temp-Dew spread
CeilingNone
Temp35°C (ISA +21)
Dew Point23°C (50% RH)
Heat Index40.7°C
AAT34.1°C
QNH1010 hPa
Density Alt3,527 ft
Elevation643 ft
Report Wrong Elevation
Raw Report
METAR KDTO 201953Z 17017G21KT 10SM CLR 35/23 A2982 RMK AO2 SLP088 T03500228=

Extra information for KDTO:More info

Metar Taf Metar & Taf Last 4 Metars F.Rules Stats Wind Profile Meteogram Temp Stats Airport Information Weather charts Add Link Nearby VenuesMetar ALERT Operation Metar Decoded Social comments

AIRNAV info for KDTO